Anchorage/Lake Hood Seaplane Base, Alaska
Current Conditions -  °F | °C
As of 7:53 AM on Thursday 30 Oct 2014 (Local Time) from PALH Reporting Station
Overcast Overcast  
Wind Chill: -4°   Ceiling: 5500
Heat Index: -4°   Visibility: 10mi
Dew Point: -7°   Wind: 0mph
Humidity: 78%   Direction: NA
Pressure: 29.61"   Gusts: NA
Location:  61.18°N, 149.97°W
Report Text: PALH 301553Z 00000KT 10SM BKN055 OVC070 M04/M07 A2961 RMK AO2 SLP029 T10391072
Loading
Personal Weather Stations






























Interactive Weather Map
Tropical Storm Tracking
New forecast layout! Learn more

10-Day Weather Forecast

Advertisements
Track Severe Weather on mobile